sensor_id;sensor_type;location;lat;lon;timestamp;temperature;humidity
36186;DHT22;22228;53.222;7.446;2022-07-15T00:00:12;14.00;99.90
36186;DHT22;22228;53.222;7.446;2022-07-15T00:02:35;13.90;99.90
36186;DHT22;22228;53.222;7.446;2022-07-15T00:04:57;13.80;99.90
36186;DHT22;22228;53.222;7.446;2022-07-15T00:07:19;13.70;99.90
36186;DHT22;22228;53.222;7.446;2022-07-15T00:09:43;13.70;99.90
36186;DHT22;22228;53.222;7.446;2022-07-15T00:12:27;13.60;99.90
36186;DHT22;22228;53.222;7.446;2022-07-15T00:14:50;13.60;99.90
36186;DHT22;22228;53.222;7.446;2022-07-15T00:17:12;13.60;99.90
36186;DHT22;22228;53.222;7.446;2022-07-15T00:19:34;13.50;99.90
36186;DHT22;22228;53.222;7.446;2022-07-15T00:21:56;13.50;99.90
36186;DHT22;22228;53.222;7.446;2022-07-15T00:24:18;13.60;99.90
36186;DHT22;22228;53.222;7.446;2022-07-15T00:26:41;13.60;99.90
36186;DHT22;22228;53.222;7.446;2022-07-15T00:29:03;13.60;99.90
36186;DHT22;22228;53.222;7.446;2022-07-15T00:31:25;13.60;99.90
36186;DHT22;22228;53.222;7.446;2022-07-15T00:33:47;13.70;99.90
36186;DHT22;22228;53.222;7.446;2022-07-15T00:36:09;13.60;99.90
36186;DHT22;22228;53.222;7.446;2022-07-15T00:38:32;13.60;99.90
36186;DHT22;22228;53.222;7.446;2022-07-15T00:40:54;13.60;99.90
36186;DHT22;22228;53.222;7.446;2022-07-15T00:43:18;13.60;99.90
36186;DHT22;22228;53.222;7.446;2022-07-15T00:45:40;13.60;99.90
36186;DHT22;22228;53.222;7.446;2022-07-15T00:48:02;13.60;99.90
36186;DHT22;22228;53.222;7.446;2022-07-15T00:50:30;13.60;99.90
36186;DHT22;22228;53.222;7.446;2022-07-15T00:52:54;13.60;99.90
36186;DHT22;22228;53.222;7.446;2022-07-15T00:55:17;13.70;99.90
36186;DHT22;22228;53.222;7.446;2022-07-15T00:57:42;13.60;99.90
36186;DHT22;22228;53.222;7.446;2022-07-15T01:00:08;13.60;99.90
36186;DHT22;22228;53.222;7.446;2022-07-15T01:02:32;13.60;99.90
36186;DHT22;22228;53.222;7.446;2022-07-15T01:04:55;13.60;99.90
36186;DHT22;22228;53.222;7.446;2022-07-15T01:07:18;13.70;99.90
36186;DHT22;22228;53.222;7.446;2022-07-15T01:09:40;13.70;99.90
36186;DHT22;22228;53.222;7.446;2022-07-15T01:12:04;13.70;99.90
36186;DHT22;22228;53.222;7.446;2022-07-15T01:14:26;13.70;99.90
36186;DHT22;22228;53.222;7.446;2022-07-15T01:16:50;13.70;99.90
36186;DHT22;22228;53.222;7.446;2022-07-15T01:19:13;13.60;99.90
36186;DHT22;22228;53.222;7.446;2022-07-15T01:21:39;13.50;99.90
36186;DHT22;22228;53.222;7.446;2022-07-15T01:24:02;13.50;99.90
36186;DHT22;22228;53.222;7.446;2022-07-15T01:26:38;13.50;99.90
36186;DHT22;22228;53.222;7.446;2022-07-15T01:29:03;13.50;99.90
36186;DHT22;22228;53.222;7.446;2022-07-15T01:31:26;13.50;99.90
36186;DHT22;22228;53.222;7.446;2022-07-15T01:33:49;13.60;99.90
36186;DHT22;22228;53.222;7.446;2022-07-15T01:36:10;13.60;99.90
36186;DHT22;22228;53.222;7.446;2022-07-15T01:38:39;13.60;99.90
36186;DHT22;22228;53.222;7.446;2022-07-15T01:41:09;13.70;99.90
36186;DHT22;22228;53.222;7.446;2022-07-15T01:43:32;13.70;99.90
36186;DHT22;22228;53.222;7.446;2022-07-15T01:45:55;13.70;99.90
36186;DHT22;22228;53.222;7.446;2022-07-15T01:48:23;13.80;99.90
36186;DHT22;22228;53.222;7.446;2022-07-15T01:51:27;13.80;99.90
36186;DHT22;22228;53.222;7.446;2022-07-15T01:53:52;13.90;99.90
36186;DHT22;22228;53.222;7.446;2022-07-15T01:56:14;13.90;99.90
36186;DHT22;22228;53.222;7.446;2022-07-15T01:58:36;13.90;99.90
36186;DHT22;22228;53.222;7.446;2022-07-15T02:00:58;13.90;99.90
36186;DHT22;22228;53.222;7.446;2022-07-15T02:03:20;13.90;99.90
36186;DHT22;22228;53.222;7.446;2022-07-15T02:05:44;13.90;99.90
36186;DHT22;22228;53.222;7.446;2022-07-15T02:08:08;13.90;99.90
36186;DHT22;22228;53.222;7.446;2022-07-15T02:10:37;13.90;99.90
36186;DHT22;22228;53.222;7.446;2022-07-15T02:13:07;14.00;99.90
36186;DHT22;22228;53.222;7.446;2022-07-15T02:15:30;13.90;99.90
36186;DHT22;22228;53.222;7.446;2022-07-15T02:17:55;14.00;99.90
36186;DHT22;22228;53.222;7.446;2022-07-15T02:20:21;14.00;99.90
36186;DHT22;22228;53.222;7.446;2022-07-15T02:22:43;14.00;99.90
36186;DHT22;22228;53.222;7.446;2022-07-15T02:25:06;13.90;99.90
36186;DHT22;22228;53.222;7.446;2022-07-15T02:27:29;13.80;99.90
36186;DHT22;22228;53.222;7.446;2022-07-15T02:29:51;13.80;99.90
36186;DHT22;22228;53.222;7.446;2022-07-15T02:32:16;13.70;99.90
36186;DHT22;22228;53.222;7.446;2022-07-15T02:34:38;13.70;99.90
36186;DHT22;22228;53.222;7.446;2022-07-15T02:37:01;13.60;99.90
36186;DHT22;22228;53.222;7.446;2022-07-15T02:39:24;13.60;99.90
36186;DHT22;22228;53.222;7.446;2022-07-15T02:41:49;13.60;99.90
36186;DHT22;22228;53.222;7.446;2022-07-15T02:44:13;13.60;99.90
36186;DHT22;22228;53.222;7.446;2022-07-15T02:46:39;13.60;99.90
36186;DHT22;22228;53.222;7.446;2022-07-15T02:49:02;13.80;99.90
36186;DHT22;22228;53.222;7.446;2022-07-15T02:51:27;13.90;99.90
36186;DHT22;22228;53.222;7.446;2022-07-15T02:53:48;13.90;99.90
36186;DHT22;22228;53.222;7.446;2022-07-15T02:56:15;13.90;99.90
36186;DHT22;22228;53.222;7.446;2022-07-15T02:58:37;13.90;99.90
36186;DHT22;22228;53.222;7.446;2022-07-15T03:01:02;13.90;99.90
36186;DHT22;22228;53.222;7.446;2022-07-15T03:03:26;13.80;99.90
36186;DHT22;22228;53.222;7.446;2022-07-15T03:05:49;13.80;99.90
36186;DHT22;22228;53.222;7.446;2022-07-15T03:08:13;13.80;99.90
36186;DHT22;22228;53.222;7.446;2022-07-15T03:10:36;13.80;99.90
36186;DHT22;22228;53.222;7.446;2022-07-15T03:12:58;13.90;99.90
36186;DHT22;22228;53.222;7.446;2022-07-15T03:15:21;13.80;99.90
36186;DHT22;22228;53.222;7.446;2022-07-15T03:17:44;13.60;99.90
36186;DHT22;22228;53.222;7.446;2022-07-15T03:20:07;13.50;99.90
36186;DHT22;22228;53.222;7.446;2022-07-15T03:22:31;13.40;99.90
36186;DHT22;22228;53.222;7.446;2022-07-15T03:24:54;13.30;99.90
36186;DHT22;22228;53.222;7.446;2022-07-15T03:27:17;13.30;99.90
36186;DHT22;22228;53.222;7.446;2022-07-15T03:29:40;13.30;99.90
36186;DHT22;22228;53.222;7.446;2022-07-15T03:32:05;13.30;99.90
36186;DHT22;22228;53.222;7.446;2022-07-15T03:34:29;13.30;99.90
36186;DHT22;22228;53.222;7.446;2022-07-15T03:36:51;13.20;99.90
36186;DHT22;22228;53.222;7.446;2022-07-15T03:39:14;13.10;99.90
36186;DHT22;22228;53.222;7.446;2022-07-15T03:41:36;13.00;99.90
36186;DHT22;22228;53.222;7.446;2022-07-15T03:43:59;13.00;99.90
36186;DHT22;22228;53.222;7.446;2022-07-15T03:46:22;13.00;99.90
36186;DHT22;22228;53.222;7.446;2022-07-15T03:48:49;12.90;99.90
36186;DHT22;22228;53.222;7.446;2022-07-15T03:51:12;12.90;99.90
36186;DHT22;22228;53.222;7.446;2022-07-15T03:53:34;12.90;99.90
36186;DHT22;22228;53.222;7.446;2022-07-15T03:55:57;12.80;99.90
36186;DHT22;22228;53.222;7.446;2022-07-15T03:58:19;12.80;99.90
36186;DHT22;22228;53.222;7.446;2022-07-15T04:00:41;12.80;99.90
36186;DHT22;22228;53.222;7.446;2022-07-15T04:03:03;12.80;99.90
36186;DHT22;22228;53.222;7.446;2022-07-15T04:05:25;12.90;99.90
36186;DHT22;22228;53.222;7.446;2022-07-15T04:07:48;12.90;99.90
36186;DHT22;22228;53.222;7.446;2022-07-15T04:10:10;12.90;99.90
36186;DHT22;22228;53.222;7.446;2022-07-15T04:12:32;13.00;99.90
36186;DHT22;22228;53.222;7.446;2022-07-15T04:14:54;13.00;99.90
36186;DHT22;22228;53.222;7.446;2022-07-15T04:17:16;13.10;99.90
36186;DHT22;22228;53.222;7.446;2022-07-15T04:19:40;13.00;99.90
36186;DHT22;22228;53.222;7.446;2022-07-15T04:22:02;13.10;99.90
36186;DHT22;22228;53.222;7.446;2022-07-15T04:24:34;13.10;99.90
36186;DHT22;22228;53.222;7.446;2022-07-15T04:26:56;13.10;99.90
36186;DHT22;22228;53.222;7.446;2022-07-15T04:29:19;13.20;99.90
36186;DHT22;22228;53.222;7.446;2022-07-15T04:31:41;13.20;99.90
36186;DHT22;22228;53.222;7.446;2022-07-15T04:34:09;13.20;99.90
36186;DHT22;22228;53.222;7.446;2022-07-15T04:36:35;13.30;99.90
36186;DHT22;22228;53.222;7.446;2022-07-15T04:38:57;13.30;99.90
36186;DHT22;22228;53.222;7.446;2022-07-15T04:41:21;13.30;99.90
36186;DHT22;22228;53.222;7.446;2022-07-15T04:43:43;13.40;99.90
36186;DHT22;22228;53.222;7.446;2022-07-15T04:46:08;13.40;99.90
36186;DHT22;22228;53.222;7.446;2022-07-15T04:48:31;13.40;99.90
36186;DHT22;22228;53.222;7.446;2022-07-15T04:51:26;13.50;99.90
36186;DHT22;22228;53.222;7.446;2022-07-15T04:53:48;13.50;99.90
36186;DHT22;22228;53.222;7.446;2022-07-15T04:56:11;13.60;99.90
36186;DHT22;22228;53.222;7.446;2022-07-15T04:58:34;13.70;99.90
36186;DHT22;22228;53.222;7.446;2022-07-15T05:00:59;13.80;99.90
36186;DHT22;22228;53.222;7.446;2022-07-15T05:03:22;13.80;99.90
36186;DHT22;22228;53.222;7.446;2022-07-15T05:05:44;14.00;99.90
36186;DHT22;22228;53.222;7.446;2022-07-15T05:08:11;14.00;99.90
36186;DHT22;22228;53.222;7.446;2022-07-15T05:10:39;14.10;99.90
36186;DHT22;22228;53.222;7.446;2022-07-15T05:13:02;14.20;99.90
36186;DHT22;22228;53.222;7.446;2022-07-15T05:15:26;14.30;99.90
36186;DHT22;22228;53.222;7.446;2022-07-15T05:17:49;14.40;99.90
36186;DHT22;22228;53.222;7.446;2022-07-15T05:20:14;14.40;99.90
36186;DHT22;22228;53.222;7.446;2022-07-15T05:22:36;14.40;99.90
36186;DHT22;22228;53.222;7.446;2022-07-15T05:24:59;14.50;99.90
36186;DHT22;22228;53.222;7.446;2022-07-15T05:27:21;14.50;99.90
36186;DHT22;22228;53.222;7.446;2022-07-15T05:29:43;14.50;99.90
36186;DHT22;22228;53.222;7.446;2022-07-15T05:32:07;14.40;99.90
36186;DHT22;22228;53.222;7.446;2022-07-15T05:34:29;14.40;99.90
36186;DHT22;22228;53.222;7.446;2022-07-15T05:36:52;14.40;99.90
36186;DHT22;22228;53.222;7.446;2022-07-15T05:39:17;14.40;99.90
36186;DHT22;22228;53.222;7.446;2022-07-15T05:41:39;14.40;99.90
36186;DHT22;22228;53.222;7.446;2022-07-15T05:44:07;14.40;99.90
36186;DHT22;22228;53.222;7.446;2022-07-15T05:46:36;14.30;99.90
36186;DHT22;22228;53.222;7.446;2022-07-15T05:49:00;14.30;99.90
36186;DHT22;22228;53.222;7.446;2022-07-15T05:51:22;14.40;99.90
36186;DHT22;22228;53.222;7.446;2022-07-15T05:53:44;14.40;99.90
36186;DHT22;22228;53.222;7.446;2022-07-15T05:56:07;14.50;99.90
36186;DHT22;22228;53.222;7.446;2022-07-15T05:58:29;14.60;99.90
36186;DHT22;22228;53.222;7.446;2022-07-15T06:00:52;14.80;99.90
36186;DHT22;22228;53.222;7.446;2022-07-15T06:03:17;15.00;99.90
36186;DHT22;22228;53.222;7.446;2022-07-15T06:05:41;15.10;99.90
36186;DHT22;22228;53.222;7.446;2022-07-15T06:08:03;15.30;99.90
36186;DHT22;22228;53.222;7.446;2022-07-15T06:10:28;15.30;99.90
36186;DHT22;22228;53.222;7.446;2022-07-15T06:12:50;15.20;99.90
36186;DHT22;22228;53.222;7.446;2022-07-15T06:15:15;15.20;99.90
36186;DHT22;22228;53.222;7.446;2022-07-15T06:17:37;15.10;99.90
36186;DHT22;22228;53.222;7.446;2022-07-15T06:20:00;15.20;99.90
36186;DHT22;22228;53.222;7.446;2022-07-15T06:22:33;15.30;99.90
36186;DHT22;22228;53.222;7.446;2022-07-15T06:24:55;15.40;99.90
36186;DHT22;22228;53.222;7.446;2022-07-15T06:27:17;15.30;99.90
36186;DHT22;22228;53.222;7.446;2022-07-15T06:29:39;15.20;99.90
36186;DHT22;22228;53.222;7.446;2022-07-15T06:32:01;15.00;99.90
36186;DHT22;22228;53.222;7.446;2022-07-15T06:34:23;14.90;99.90
36186;DHT22;22228;53.222;7.446;2022-07-15T06:36:44;14.80;99.90
36186;DHT22;22228;53.222;7.446;2022-07-15T06:39:07;14.80;99.90
36186;DHT22;22228;53.222;7.446;2022-07-15T06:41:29;14.70;99.90
36186;DHT22;22228;53.222;7.446;2022-07-15T06:43:53;14.80;99.90
36186;DHT22;22228;53.222;7.446;2022-07-15T06:46:28;14.80;99.90
36186;DHT22;22228;53.222;7.446;2022-07-15T06:48:50;14.80;99.90
36186;DHT22;22228;53.222;7.446;2022-07-15T06:51:13;14.80;99.90
36186;DHT22;22228;53.222;7.446;2022-07-15T06:53:36;14.70;99.90
36186;DHT22;22228;53.222;7.446;2022-07-15T06:56:00;14.50;99.90
36186;DHT22;22228;53.222;7.446;2022-07-15T06:58:22;14.40;99.90
36186;DHT22;22228;53.222;7.446;2022-07-15T07:00:44;14.40;99.90
36186;DHT22;22228;53.222;7.446;2022-07-15T07:03:06;14.40;99.90
36186;DHT22;22228;53.222;7.446;2022-07-15T07:05:28;14.40;99.90
36186;DHT22;22228;53.222;7.446;2022-07-15T07:07:50;14.30;99.90
36186;DHT22;22228;53.222;7.446;2022-07-15T07:10:12;14.40;99.90
36186;DHT22;22228;53.222;7.446;2022-07-15T07:12:36;14.50;99.90
36186;DHT22;22228;53.222;7.446;2022-07-15T07:14:58;14.80;99.90
36186;DHT22;22228;53.222;7.446;2022-07-15T07:17:21;15.00;99.90
36186;DHT22;22228;53.222;7.446;2022-07-15T07:19:43;15.40;99.90
36186;DHT22;22228;53.222;7.446;2022-07-15T07:22:05;15.50;99.90
36186;DHT22;22228;53.222;7.446;2022-07-15T07:24:28;15.80;99.90
36186;DHT22;22228;53.222;7.446;2022-07-15T07:26:50;15.90;99.90
36186;DHT22;22228;53.222;7.446;2022-07-15T07:29:14;15.90;99.90
36186;DHT22;22228;53.222;7.446;2022-07-15T07:31:42;15.90;99.90
36186;DHT22;22228;53.222;7.446;2022-07-15T07:34:05;16.00;99.90
36186;DHT22;22228;53.222;7.446;2022-07-15T07:36:27;16.10;99.90
36186;DHT22;22228;53.222;7.446;2022-07-15T07:38:50;16.10;99.90
36186;DHT22;22228;53.222;7.446;2022-07-15T07:41:12;16.00;99.90
36186;DHT22;22228;53.222;7.446;2022-07-15T07:43:34;15.80;99.90
36186;DHT22;22228;53.222;7.446;2022-07-15T07:45:59;15.70;99.90
36186;DHT22;22228;53.222;7.446;2022-07-15T07:48:21;15.70;99.90
36186;DHT22;22228;53.222;7.446;2022-07-15T07:50:44;15.80;99.90
36186;DHT22;22228;53.222;7.446;2022-07-15T07:53:06;16.00;99.90
36186;DHT22;22228;53.222;7.446;2022-07-15T07:55:29;16.20;99.90
36186;DHT22;22228;53.222;7.446;2022-07-15T07:57:53;16.20;99.90
36186;DHT22;22228;53.222;7.446;2022-07-15T08:00:16;16.20;99.90
36186;DHT22;22228;53.222;7.446;2022-07-15T08:02:39;16.30;99.90
36186;DHT22;22228;53.222;7.446;2022-07-15T08:05:03;16.40;99.90
36186;DHT22;22228;53.222;7.446;2022-07-15T08:07:25;16.40;99.90
36186;DHT22;22228;53.222;7.446;2022-07-15T08:09:48;16.30;99.90
36186;DHT22;22228;53.222;7.446;2022-07-15T08:12:10;16.30;99.90
36186;DHT22;22228;53.222;7.446;2022-07-15T08:14:32;16.50;99.90
36186;DHT22;22228;53.222;7.446;2022-07-15T08:16:53;16.70;99.90
36186;DHT22;22228;53.222;7.446;2022-07-15T08:19:17;16.80;99.90
36186;DHT22;22228;53.222;7.446;2022-07-15T08:21:40;16.90;99.90
36186;DHT22;22228;53.222;7.446;2022-07-15T08:24:02;16.90;99.90
36186;DHT22;22228;53.222;7.446;2022-07-15T08:26:25;17.00;99.90
36186;DHT22;22228;53.222;7.446;2022-07-15T08:28:47;17.10;99.90
36186;DHT22;22228;53.222;7.446;2022-07-15T08:31:26;17.30;99.90
36186;DHT22;22228;53.222;7.446;2022-07-15T08:33:48;17.60;99.90
36186;DHT22;22228;53.222;7.446;2022-07-15T08:36:12;17.90;99.90
36186;DHT22;22228;53.222;7.446;2022-07-15T08:38:34;18.10;99.90
36186;DHT22;22228;53.222;7.446;2022-07-15T08:40:56;18.00;99.90
36186;DHT22;22228;53.222;7.446;2022-07-15T08:43:19;17.80;99.90
36186;DHT22;22228;53.222;7.446;2022-07-15T08:45:42;17.40;99.90
36186;DHT22;22228;53.222;7.446;2022-07-15T08:48:05;17.30;99.90
36186;DHT22;22228;53.222;7.446;2022-07-15T08:50:28;17.00;99.90
36186;DHT22;22228;53.222;7.446;2022-07-15T08:52:52;16.70;99.90
36186;DHT22;22228;53.222;7.446;2022-07-15T08:55:15;16.40;99.90
36186;DHT22;22228;53.222;7.446;2022-07-15T08:57:37;16.00;99.90
36186;DHT22;22228;53.222;7.446;2022-07-15T09:00:06;15.60;99.90
36186;DHT22;22228;53.222;7.446;2022-07-15T09:02:30;15.30;99.90
36186;DHT22;22228;53.222;7.446;2022-07-15T09:05:24;15.10;99.90
36186;DHT22;22228;53.222;7.446;2022-07-15T09:08:07;14.90;99.90
36186;DHT22;22228;53.222;7.446;2022-07-15T09:10:46;14.80;99.90
36186;DHT22;22228;53.222;7.446;2022-07-15T09:13:10;14.60;99.90
36186;DHT22;22228;53.222;7.446;2022-07-15T09:15:34;14.60;99.90
36186;DHT22;22228;53.222;7.446;2022-07-15T09:18:04;14.60;99.90
36186;DHT22;22228;53.222;7.446;2022-07-15T09:20:27;14.60;99.90
36186;DHT22;22228;53.222;7.446;2022-07-15T09:22:52;14.60;99.90
36186;DHT22;22228;53.222;7.446;2022-07-15T09:25:16;14.60;99.90
36186;DHT22;22228;53.222;7.446;2022-07-15T09:27:39;14.70;99.90
36186;DHT22;22228;53.222;7.446;2022-07-15T09:30:20;14.70;99.90
36186;DHT22;22228;53.222;7.446;2022-07-15T09:33:00;14.90;99.90
36186;DHT22;22228;53.222;7.446;2022-07-15T09:35:40;15.00;99.90
36186;DHT22;22228;53.222;7.446;2022-07-15T09:38:23;15.10;99.90
36186;DHT22;22228;53.222;7.446;2022-07-15T09:40:48;15.20;99.90
36186;DHT22;22228;53.222;7.446;2022-07-15T09:43:10;15.30;99.90
36186;DHT22;22228;53.222;7.446;2022-07-15T09:45:32;15.40;99.90
36186;DHT22;22228;53.222;7.446;2022-07-15T09:48:05;15.50;99.90
36186;DHT22;22228;53.222;7.446;2022-07-15T09:50:32;15.50;99.90
36186;DHT22;22228;53.222;7.446;2022-07-15T09:52:55;15.60;99.90
36186;DHT22;22228;53.222;7.446;2022-07-15T09:55:18;15.60;99.90
36186;DHT22;22228;53.222;7.446;2022-07-15T09:57:41;15.70;99.90
36186;DHT22;22228;53.222;7.446;2022-07-15T10:00:05;15.80;99.90
36186;DHT22;22228;53.222;7.446;2022-07-15T10:02:27;16.10;99.90
36186;DHT22;22228;53.222;7.446;2022-07-15T10:04:50;16.20;99.90
36186;DHT22;22228;53.222;7.446;2022-07-15T10:07:14;16.40;99.90
36186;DHT22;22228;53.222;7.446;2022-07-15T10:09:54;16.60;99.90
36186;DHT22;22228;53.222;7.446;2022-07-15T10:12:25;16.70;99.90
36186;DHT22;22228;53.222;7.446;2022-07-15T10:15:04;16.90;99.90
36186;DHT22;22228;53.222;7.446;2022-07-15T10:17:45;17.30;99.90
36186;DHT22;22228;53.222;7.446;2022-07-15T10:20:22;17.60;99.90
36186;DHT22;22228;53.222;7.446;2022-07-15T10:22:55;17.80;99.90
36186;DHT22;22228;53.222;7.446;2022-07-15T10:25:30;17.90;99.90
36186;DHT22;22228;53.222;7.446;2022-07-15T10:28:00;17.80;99.90
36186;DHT22;22228;53.222;7.446;2022-07-15T10:30:25;17.60;99.90
36186;DHT22;22228;53.222;7.446;2022-07-15T10:33:07;17.40;99.90
36186;DHT22;22228;53.222;7.446;2022-07-15T10:35:33;16.90;99.90
36186;DHT22;22228;53.222;7.446;2022-07-15T10:38:20;16.50;99.90
36186;DHT22;22228;53.222;7.446;2022-07-15T10:41:10;16.10;99.90
36186;DHT22;22228;53.222;7.446;2022-07-15T10:43:38;15.70;99.90
36186;DHT22;22228;53.222;7.446;2022-07-15T10:46:11;15.50;99.90
36186;DHT22;22228;53.222;7.446;2022-07-15T10:48:38;15.40;99.90
36186;DHT22;22228;53.222;7.446;2022-07-15T10:51:01;15.40;99.90
36186;DHT22;22228;53.222;7.446;2022-07-15T10:53:24;15.50;99.90
36186;DHT22;22228;53.222;7.446;2022-07-15T10:55:48;15.70;99.90
36186;DHT22;22228;53.222;7.446;2022-07-15T10:58:12;16.00;99.90
36186;DHT22;22228;53.222;7.446;2022-07-15T11:00:34;16.20;99.90
36186;DHT22;22228;53.222;7.446;2022-07-15T11:03:05;16.40;99.90
36186;DHT22;22228;53.222;7.446;2022-07-15T11:05:27;16.60;99.90
36186;DHT22;22228;53.222;7.446;2022-07-15T11:07:49;16.90;99.90
36186;DHT22;22228;53.222;7.446;2022-07-15T11:10:16;17.10;99.90
36186;DHT22;22228;53.222;7.446;2022-07-15T11:13:08;17.20;99.90
36186;DHT22;22228;53.222;7.446;2022-07-15T11:15:31;17.40;99.90
36186;DHT22;22228;53.222;7.446;2022-07-15T11:17:55;17.30;99.90
36186;DHT22;22228;53.222;7.446;2022-07-15T11:20:31;17.20;99.90
36186;DHT22;22228;53.222;7.446;2022-07-15T11:22:56;17.20;99.90
36186;DHT22;22228;53.222;7.446;2022-07-15T11:25:19;17.00;99.90
36186;DHT22;22228;53.222;7.446;2022-07-15T11:27:41;17.00;99.90
36186;DHT22;22228;53.222;7.446;2022-07-15T11:30:04;17.00;99.90
36186;DHT22;22228;53.222;7.446;2022-07-15T11:32:29;17.00;99.90
36186;DHT22;22228;53.222;7.446;2022-07-15T11:34:53;17.00;99.90
36186;DHT22;22228;53.222;7.446;2022-07-15T11:37:17;17.10;99.90
36186;DHT22;22228;53.222;7.446;2022-07-15T11:39:42;17.30;99.90
36186;DHT22;22228;53.222;7.446;2022-07-15T11:42:04;17.60;99.90
36186;DHT22;22228;53.222;7.446;2022-07-15T11:44:47;17.80;99.90
36186;DHT22;22228;53.222;7.446;2022-07-15T11:47:10;18.00;99.90
36186;DHT22;22228;53.222;7.446;2022-07-15T11:49:33;18.10;99.90
36186;DHT22;22228;53.222;7.446;2022-07-15T11:51:57;18.10;99.90
36186;DHT22;22228;53.222;7.446;2022-07-15T11:54:21;18.10;99.90
36186;DHT22;22228;53.222;7.446;2022-07-15T11:56:45;18.10;99.90
36186;DHT22;22228;53.222;7.446;2022-07-15T11:59:14;18.20;99.90
36186;DHT22;22228;53.222;7.446;2022-07-15T12:01:36;18.40;99.90
36186;DHT22;22228;53.222;7.446;2022-07-15T12:03:58;18.60;99.90
36186;DHT22;22228;53.222;7.446;2022-07-15T12:06:22;18.60;99.90
36186;DHT22;22228;53.222;7.446;2022-07-15T12:08:47;18.60;99.90
36186;DHT22;22228;53.222;7.446;2022-07-15T12:11:14;18.80;99.90
36186;DHT22;22228;53.222;7.446;2022-07-15T12:13:41;18.90;99.90
36186;DHT22;22228;53.222;7.446;2022-07-15T12:16:04;18.90;99.90
36186;DHT22;22228;53.222;7.446;2022-07-15T12:18:32;18.80;99.90
36186;DHT22;22228;53.222;7.446;2022-07-15T12:20:55;18.60;99.90
36186;DHT22;22228;53.222;7.446;2022-07-15T12:23:17;18.50;99.90
36186;DHT22;22228;53.222;7.446;2022-07-15T12:25:39;18.40;99.90
36186;DHT22;22228;53.222;7.446;2022-07-15T12:28:03;18.40;99.90
36186;DHT22;22228;53.222;7.446;2022-07-15T12:30:31;18.50;99.90
36186;DHT22;22228;53.222;7.446;2022-07-15T12:33:18;18.60;99.90
36186;DHT22;22228;53.222;7.446;2022-07-15T12:35:41;18.80;99.90
36186;DHT22;22228;53.222;7.446;2022-07-15T12:38:03;19.00;99.90
36186;DHT22;22228;53.222;7.446;2022-07-15T12:40:25;19.20;99.90
36186;DHT22;22228;53.222;7.446;2022-07-15T12:42:48;19.40;99.90
36186;DHT22;22228;53.222;7.446;2022-07-15T12:45:14;19.60;99.90
36186;DHT22;22228;53.222;7.446;2022-07-15T12:47:37;19.70;99.90
36186;DHT22;22228;53.222;7.446;2022-07-15T12:50:02;20.20;99.90
36186;DHT22;22228;53.222;7.446;2022-07-15T12:52:30;21.20;99.90
36186;DHT22;22228;53.222;7.446;2022-07-15T12:54:54;21.70;99.90
36186;DHT22;22228;53.222;7.446;2022-07-15T12:57:31;21.60;99.90
36186;DHT22;22228;53.222;7.446;2022-07-15T12:59:55;21.10;99.90
36186;DHT22;22228;53.222;7.446;2022-07-15T13:02:19;20.20;99.90
36186;DHT22;22228;53.222;7.446;2022-07-15T13:04:42;19.50;99.90
36186;DHT22;22228;53.222;7.446;2022-07-15T13:07:04;18.80;99.90
36186;DHT22;22228;53.222;7.446;2022-07-15T13:09:26;18.40;99.90
36186;DHT22;22228;53.222;7.446;2022-07-15T13:11:56;18.10;99.90
36186;DHT22;22228;53.222;7.446;2022-07-15T13:14:19;17.80;99.90
36186;DHT22;22228;53.222;7.446;2022-07-15T13:16:41;17.70;99.90
36186;DHT22;22228;53.222;7.446;2022-07-15T13:19:04;17.70;99.90
36186;DHT22;22228;53.222;7.446;2022-07-15T13:21:26;17.80;99.90
36186;DHT22;22228;53.222;7.446;2022-07-15T13:23:48;17.90;99.90
36186;DHT22;22228;53.222;7.446;2022-07-15T13:26:09;18.10;99.90
36186;DHT22;22228;53.222;7.446;2022-07-15T13:28:31;18.40;99.90
36186;DHT22;22228;53.222;7.446;2022-07-15T13:30:53;18.50;99.90
36186;DHT22;22228;53.222;7.446;2022-07-15T13:33:17;18.60;99.90
36186;DHT22;22228;53.222;7.446;2022-07-15T13:35:40;18.70;99.90
36186;DHT22;22228;53.222;7.446;2022-07-15T13:38:02;18.60;99.90
36186;DHT22;22228;53.222;7.446;2022-07-15T13:40:24;18.60;99.90
36186;DHT22;22228;53.222;7.446;2022-07-15T13:42:46;18.50;99.90
36186;DHT22;22228;53.222;7.446;2022-07-15T13:45:10;18.30;99.90
36186;DHT22;22228;53.222;7.446;2022-07-15T13:47:33;18.20;99.90
36186;DHT22;22228;53.222;7.446;2022-07-15T13:49:55;18.10;99.90
36186;DHT22;22228;53.222;7.446;2022-07-15T13:52:41;18.00;99.90
36186;DHT22;22228;53.222;7.446;2022-07-15T13:55:03;17.90;99.90
36186;DHT22;22228;53.222;7.446;2022-07-15T13:57:25;17.80;99.90
36186;DHT22;22228;53.222;7.446;2022-07-15T13:59:47;17.80;99.90
36186;DHT22;22228;53.222;7.446;2022-07-15T14:02:09;17.90;99.90
36186;DHT22;22228;53.222;7.446;2022-07-15T14:04:31;17.90;99.90
36186;DHT22;22228;53.222;7.446;2022-07-15T14:06:53;18.00;99.90
36186;DHT22;22228;53.222;7.446;2022-07-15T14:09:17;18.10;99.90
36186;DHT22;22228;53.222;7.446;2022-07-15T14:11:39;18.40;99.90
36186;DHT22;22228;53.222;7.446;2022-07-15T14:14:01;18.70;99.90
36186;DHT22;22228;53.222;7.446;2022-07-15T14:16:23;19.20;99.90
36186;DHT22;22228;53.222;7.446;2022-07-15T14:18:45;20.00;99.90
36186;DHT22;22228;53.222;7.446;2022-07-15T14:21:11;20.10;99.90
36186;DHT22;22228;53.222;7.446;2022-07-15T14:23:33;20.10;99.90
36186;DHT22;22228;53.222;7.446;2022-07-15T14:25:56;19.90;99.90
36186;DHT22;22228;53.222;7.446;2022-07-15T14:28:18;19.60;99.90
36186;DHT22;22228;53.222;7.446;2022-07-15T14:30:40;19.20;99.90
36186;DHT22;22228;53.222;7.446;2022-07-15T14:33:03;18.80;99.90
36186;DHT22;22228;53.222;7.446;2022-07-15T14:35:25;18.40;99.90
36186;DHT22;22228;53.222;7.446;2022-07-15T14:37:47;18.00;99.90
36186;DHT22;22228;53.222;7.446;2022-07-15T14:40:10;17.80;99.90
36186;DHT22;22228;53.222;7.446;2022-07-15T14:42:33;17.70;99.90
36186;DHT22;22228;53.222;7.446;2022-07-15T14:44:55;17.70;99.90
36186;DHT22;22228;53.222;7.446;2022-07-15T14:47:17;17.80;99.90
36186;DHT22;22228;53.222;7.446;2022-07-15T14:49:39;18.40;99.90
36186;DHT22;22228;53.222;7.446;2022-07-15T14:52:01;19.60;99.90
36186;DHT22;22228;53.222;7.446;2022-07-15T14:54:23;20.80;99.90
36186;DHT22;22228;53.222;7.446;2022-07-15T14:56:45;21.30;99.90
36186;DHT22;22228;53.222;7.446;2022-07-15T14:59:09;21.70;99.90
36186;DHT22;22228;53.222;7.446;2022-07-15T15:01:31;21.30;99.90
36186;DHT22;22228;53.222;7.446;2022-07-15T15:03:53;21.10;99.90
36186;DHT22;22228;53.222;7.446;2022-07-15T15:06:16;21.30;99.90
36186;DHT22;22228;53.222;7.446;2022-07-15T15:08:42;21.40;99.90
36186;DHT22;22228;53.222;7.446;2022-07-15T15:11:04;21.10;99.90
36186;DHT22;22228;53.222;7.446;2022-07-15T15:13:26;20.70;99.90